sensor_id;sensor_type;location;lat;lon;timestamp;pressure;altitude;pressure_sealevel;temperature;humidity
68376;BME280;55318;52.068;5.188;2023-01-26T00:01:07;102573.0;;;1.74;94.37
68376;BME280;55318;52.068;5.188;2023-01-26T00:04:20;102575.0;;;1.88;94.13
68376;BME280;55318;52.068;5.188;2023-01-26T00:05:56;102580.0;;;1.67;94.7
68376;BME280;55318;52.068;5.188;2023-01-26T00:07:32;102586.99999999999;;;1.61;94.72
68376;BME280;55318;52.068;5.188;2023-01-26T00:10:49;102583.0;;;1.62;94.4
68376;BME280;55318;52.068;5.188;2023-01-26T00:12:26;102578.0;;;1.73;94.17
68376;BME280;55318;52.068;5.188;2023-01-26T00:14:02;102576.0;;;1.85;93.82
68376;BME280;55318;52.068;5.188;2023-01-26T00:15:39;102578.0;;;1.67;94.17
68376;BME280;55318;52.068;5.188;2023-01-26T00:19:01;102574.0;;;1.87;93.8
68376;BME280;55318;52.068;5.188;2023-01-26T00:20:37;102568.0;;;1.79;93.9
68376;BME280;55318;52.068;5.188;2023-01-26T00:22:13;102567.0;;;1.82;93.87
68376;BME280;55318;52.068;5.188;2023-01-26T00:25:27;102568.0;;;1.79;94.0
68376;BME280;55318;52.068;5.188;2023-01-26T00:27:03;102567.0;;;1.98;93.88
68376;BME280;55318;52.068;5.188;2023-01-26T00:28:39;102567.0;;;1.89;94.27
68376;BME280;55318;52.068;5.188;2023-01-26T00:30:16;102566.00000000001;;;2.0;93.93
68376;BME280;55318;52.068;5.188;2023-01-26T00:33:29;102565.00000000001;;;2.08;93.61
68376;BME280;55318;52.068;5.188;2023-01-26T00:35:05;102558.0;;;2.07;93.06
68376;BME280;55318;52.068;5.188;2023-01-26T00:36:42;102553.0;;;2.17;93.16
68376;BME280;55318;52.068;5.188;2023-01-26T00:39:54;102555.0;;;2.02;93.28
68376;BME280;55318;52.068;5.188;2023-01-26T00:42:35;102551.0;;;1.86;93.57
68376;BME280;55318;52.068;5.188;2023-01-26T00:44:11;102548.0;;;1.77;93.66
68376;BME280;55318;52.068;5.188;2023-01-26T00:45:48;102548.0;;;1.86;93.73
68376;BME280;55318;52.068;5.188;2023-01-26T00:47:24;102552.0;;;1.95;92.84
68376;BME280;55318;52.068;5.188;2023-01-26T00:50:36;102548.0;;;1.88;93.38
68376;BME280;55318;52.068;5.188;2023-01-26T00:52:12;102552.0;;;1.89;93.33
68376;BME280;55318;52.068;5.188;2023-01-26T00:53:49;102553.0;;;1.97;93.17
68376;BME280;55318;52.068;5.188;2023-01-26T00:55:31;102545.0;;;2.11;92.63
68376;BME280;55318;52.068;5.188;2023-01-26T00:58:45;102543.0;;;2.15;92.57
68376;BME280;55318;52.068;5.188;2023-01-26T01:00:21;102542.0;;;1.96;92.81
68376;BME280;55318;52.068;5.188;2023-01-26T01:01:57;102540.00000000001;;;1.96;92.83
68376;BME280;55318;52.068;5.188;2023-01-26T01:05:10;102534.99999999999;;;2.05;92.93
68376;BME280;55318;52.068;5.188;2023-01-26T01:06:47;102533.0;;;2.12;92.44
68376;BME280;55318;52.068;5.188;2023-01-26T01:08:23;102524.0;;;1.91;92.9
68376;BME280;55318;52.068;5.188;2023-01-26T01:09:59;102527.0;;;1.99;92.95
68376;BME280;55318;52.068;5.188;2023-01-26T01:13:12;102530.0;;;2.05;92.91
68376;BME280;55318;52.068;5.188;2023-01-26T01:14:48;102528.0;;;1.93;93.21
68376;BME280;55318;52.068;5.188;2023-01-26T01:16:24;102525.0;;;2.0;92.65
68376;BME280;55318;52.068;5.188;2023-01-26T01:19:38;102526.0;;;2.11;92.51
68376;BME280;55318;52.068;5.188;2023-01-26T01:21:16;102525.0;;;1.98;92.9
68376;BME280;55318;52.068;5.188;2023-01-26T01:22:52;102525.0;;;2.17;92.22
68376;BME280;55318;52.068;5.188;2023-01-26T01:26:05;102518.0;;;2.05;92.36
68376;BME280;55318;52.068;5.188;2023-01-26T01:27:42;102525.0;;;2.19;92.21
68376;BME280;55318;52.068;5.188;2023-01-26T01:29:19;102525.0;;;2.15;92.26
68376;BME280;55318;52.068;5.188;2023-01-26T01:30:55;102527.0;;;2.17;92.51
68376;BME280;55318;52.068;5.188;2023-01-26T01:34:09;102529.0;;;2.25;92.01
68376;BME280;55318;52.068;5.188;2023-01-26T01:35:55;102524.0;;;2.13;92.42
68376;BME280;55318;52.068;5.188;2023-01-26T01:37:32;102522.0;;;2.15;92.71
68376;BME280;55318;52.068;5.188;2023-01-26T01:40:45;102522.0;;;2.21;92.2
68376;BME280;55318;52.068;5.188;2023-01-26T01:42:23;102521.0;;;2.27;91.79
68376;BME280;55318;52.068;5.188;2023-01-26T01:44:17;102519.0;;;2.19;92.31
68376;BME280;55318;52.068;5.188;2023-01-26T01:45:55;102517.0;;;2.27;91.79
68376;BME280;55318;52.068;5.188;2023-01-26T01:49:16;102515.00000000001;;;2.29;91.85
68376;BME280;55318;52.068;5.188;2023-01-26T01:50:57;102514.00000000001;;;2.21;91.61
68376;BME280;55318;52.068;5.188;2023-01-26T01:52:35;102516.00000000001;;;2.07;92.31
68376;BME280;55318;52.068;5.188;2023-01-26T01:54:15;102517.0;;;1.97;92.78
68376;BME280;55318;52.068;5.188;2023-01-26T01:57:48;102517.0;;;2.15;92.35
68376;BME280;55318;52.068;5.188;2023-01-26T01:59:28;102516.00000000001;;;2.21;92.05
68376;BME280;55318;52.068;5.188;2023-01-26T02:01:06;102516.00000000001;;;2.23;92.12
68376;BME280;55318;52.068;5.188;2023-01-26T02:02:44;102517.0;;;2.25;91.98
68376;BME280;55318;52.068;5.188;2023-01-26T02:04:24;102516.00000000001;;;2.16;91.98
68376;BME280;55318;52.068;5.188;2023-01-26T02:07:44;102509.99999999999;;;2.23;92.25
68376;BME280;55318;52.068;5.188;2023-01-26T02:10:25;102514.00000000001;;;2.25;91.83
68376;BME280;55318;52.068;5.188;2023-01-26T02:12:05;102506.0;;;2.25;91.7
68376;BME280;55318;52.068;5.188;2023-01-26T02:13:46;102507.0;;;2.14;92.05
68376;BME280;55318;52.068;5.188;2023-01-26T02:15:23;102507.0;;;2.11;92.18
68376;BME280;55318;52.068;5.188;2023-01-26T02:16:59;102502.0;;;2.21;92.15
68376;BME280;55318;52.068;5.188;2023-01-26T02:20:19;102505.0;;;2.19;92.16
68376;BME280;55318;52.068;5.188;2023-01-26T02:22:01;102505.0;;;2.16;92.13
68376;BME280;55318;52.068;5.188;2023-01-26T02:23:51;102500.0;;;2.14;92.49
68376;BME280;55318;52.068;5.188;2023-01-26T02:25:41;102506.0;;;2.21;92.12
68376;BME280;55318;52.068;5.188;2023-01-26T02:27:22;102505.0;;;2.25;91.93
68376;BME280;55318;52.068;5.188;2023-01-26T02:30:36;102511.99999999999;;;2.25;91.89
68376;BME280;55318;52.068;5.188;2023-01-26T02:32:14;102508.99999999999;;;2.23;92.33
68376;BME280;55318;52.068;5.188;2023-01-26T02:33:50;102507.0;;;2.15;92.27
68376;BME280;55318;52.068;5.188;2023-01-26T02:37:02;102503.0;;;2.25;92.02
68376;BME280;55318;52.068;5.188;2023-01-26T02:38:41;102499.0;;;2.27;91.92
68376;BME280;55318;52.068;5.188;2023-01-26T02:40:24;102504.0;;;2.19;92.36
68376;BME280;55318;52.068;5.188;2023-01-26T02:42:43;102502.0;;;2.21;92.01
68376;BME280;55318;52.068;5.188;2023-01-26T02:44:19;102503.0;;;2.32;91.65
68376;BME280;55318;52.068;5.188;2023-01-26T02:47:33;102500.0;;;2.29;91.3
68376;BME280;55318;52.068;5.188;2023-01-26T02:50:14;102500.0;;;2.29;91.53
68376;BME280;55318;52.068;5.188;2023-01-26T02:51:50;102505.0;;;2.27;91.71
68376;BME280;55318;52.068;5.188;2023-01-26T02:53:27;102506.0;;;2.23;91.83
68376;BME280;55318;52.068;5.188;2023-01-26T02:55:36;102507.0;;;2.25;91.81
68376;BME280;55318;52.068;5.188;2023-01-26T02:57:12;102509.99999999999;;;2.36;91.59
68376;BME280;55318;52.068;5.188;2023-01-26T02:58:49;102515.00000000001;;;2.32;91.55
68376;BME280;55318;52.068;5.188;2023-01-26T03:02:04;102513.00000000001;;;2.23;92.03
68376;BME280;55318;52.068;5.188;2023-01-26T03:03:41;102511.99999999999;;;2.31;92.17
68376;BME280;55318;52.068;5.188;2023-01-26T03:05:17;102515.00000000001;;;2.34;91.98
68376;BME280;55318;52.068;5.188;2023-01-26T03:08:31;102508.0;;;2.32;92.29
68376;BME280;55318;52.068;5.188;2023-01-26T03:10:09;102513.00000000001;;;2.27;92.57
68376;BME280;55318;52.068;5.188;2023-01-26T03:11:45;102508.99999999999;;;2.29;92.26
68376;BME280;55318;52.068;5.188;2023-01-26T03:13:21;102515.00000000001;;;2.23;92.83
68376;BME280;55318;52.068;5.188;2023-01-26T03:17:44;102520.0;;;2.31;92.76
68376;BME280;55318;52.068;5.188;2023-01-26T03:27:33;102514.00000000001;;;2.37;92.45
68376;BME280;55318;52.068;5.188;2023-01-26T03:29:12;102509.99999999999;;;2.37;92.18
68376;BME280;55318;52.068;5.188;2023-01-26T03:30:50;102508.99999999999;;;2.37;92.36
68376;BME280;55318;52.068;5.188;2023-01-26T03:32:27;102508.99999999999;;;2.46;92.28
68376;BME280;55318;52.068;5.188;2023-01-26T03:35:39;102504.0;;;2.52;91.82
68376;BME280;55318;52.068;5.188;2023-01-26T03:37:21;102505.0;;;2.44;91.76
68376;BME280;55318;52.068;5.188;2023-01-26T03:56:34;102508.99999999999;;;2.36;93.35
68376;BME280;55318;52.068;5.188;2023-01-26T03:58:11;102507.0;;;2.31;93.69
68376;BME280;55318;52.068;5.188;2023-01-26T03:59:46;102508.99999999999;;;2.35;93.36
68376;BME280;55318;52.068;5.188;2023-01-26T04:08:29;102509.99999999999;;;2.4;92.99
68376;BME280;55318;52.068;5.188;2023-01-26T04:10:07;102508.99999999999;;;2.25;93.79
68376;BME280;55318;52.068;5.188;2023-01-26T04:21:29;102506.0;;;2.13;94.69
68376;BME280;55318;52.068;5.188;2023-01-26T04:23:06;102509.99999999999;;;2.27;94.64
68376;BME280;55318;52.068;5.188;2023-01-26T04:24:42;102505.0;;;2.5;93.43
68376;BME280;55318;52.068;5.188;2023-01-26T04:27:54;102506.0;;;2.25;94.66
68376;BME280;55318;52.068;5.188;2023-01-26T04:29:31;102508.0;;;2.1;95.55
68376;BME280;55318;52.068;5.188;2023-01-26T04:31:07;102514.00000000001;;;2.17;95.71
68376;BME280;55318;52.068;5.188;2023-01-26T04:34:21;102505.0;;;2.05;95.96
68376;BME280;55318;52.068;5.188;2023-01-26T04:36:02;102508.99999999999;;;2.1;95.95
68376;BME280;55318;52.068;5.188;2023-01-26T04:37:38;102509.99999999999;;;2.17;95.85
68376;BME280;55318;52.068;5.188;2023-01-26T04:39:15;102508.0;;;2.06;96.19
68376;BME280;55318;52.068;5.188;2023-01-26T04:42:28;102506.0;;;2.06;96.44
68376;BME280;55318;52.068;5.188;2023-01-26T04:44:05;102506.0;;;2.04;96.89
68376;BME280;55318;52.068;5.188;2023-01-26T04:45:41;102501.0;;;2.13;96.45
68376;BME280;55318;52.068;5.188;2023-01-26T04:48:54;102503.0;;;2.21;96.24
68376;BME280;55318;52.068;5.188;2023-01-26T04:50:30;102505.0;;;2.07;96.71
68376;BME280;55318;52.068;5.188;2023-01-26T04:52:07;102493.0;;;2.06;96.65
68376;BME280;55318;52.068;5.188;2023-01-26T04:55:19;102494.0;;;2.23;96.08
68376;BME280;55318;52.068;5.188;2023-01-26T04:56:55;102495.0;;;2.25;95.89
68376;BME280;55318;52.068;5.188;2023-01-26T04:58:32;102498.0;;;2.23;95.5
68376;BME280;55318;52.068;5.188;2023-01-26T05:00:11;102494.0;;;2.36;95.58
68376;BME280;55318;52.068;5.188;2023-01-26T05:03:24;102497.0;;;2.21;95.84
68376;BME280;55318;52.068;5.188;2023-01-26T05:05:02;102505.0;;;2.27;96.02
68376;BME280;55318;52.068;5.188;2023-01-26T05:06:41;102490.00000000001;;;2.37;95.46
68376;BME280;55318;52.068;5.188;2023-01-26T05:09:55;102499.0;;;2.27;95.57
68376;BME280;55318;52.068;5.188;2023-01-26T05:11:32;102499.0;;;2.17;96.29
68376;BME280;55318;52.068;5.188;2023-01-26T05:13:09;102490.00000000001;;;2.15;96.69
68376;BME280;55318;52.068;5.188;2023-01-26T05:14:46;102490.00000000001;;;2.34;96.43
68376;BME280;55318;52.068;5.188;2023-01-26T05:18:00;102484.99999999999;;;2.23;96.13
68376;BME280;55318;52.068;5.188;2023-01-26T05:19:36;102480.0;;;2.19;96.14
68376;BME280;55318;52.068;5.188;2023-01-26T05:21:12;102477.0;;;2.35;96.25
68376;BME280;55318;52.068;5.188;2023-01-26T05:24:25;102476.0;;;2.29;96.08
68376;BME280;55318;52.068;5.188;2023-01-26T05:26:01;102473.0;;;2.25;96.38
68376;BME280;55318;52.068;5.188;2023-01-26T05:27:38;102480.0;;;2.19;96.87
68376;BME280;55318;52.068;5.188;2023-01-26T05:30:50;102478.0;;;2.16;97.12
68376;BME280;55318;52.068;5.188;2023-01-26T05:32:28;102475.0;;;2.25;97.16
68376;BME280;55318;52.068;5.188;2023-01-26T05:34:04;102486.99999999999;;;2.27;96.67
68376;BME280;55318;52.068;5.188;2023-01-26T05:35:41;102479.0;;;2.27;96.99
68376;BME280;55318;52.068;5.188;2023-01-26T05:38:53;102479.0;;;2.54;95.74
68376;BME280;55318;52.068;5.188;2023-01-26T05:40:29;102483.0;;;2.4;96.05
68376;BME280;55318;52.068;5.188;2023-01-26T05:42:05;102488.00000000001;;;2.46;96.39
68376;BME280;55318;52.068;5.188;2023-01-26T05:45:18;102486.99999999999;;;2.72;94.87
68376;BME280;55318;52.068;5.188;2023-01-26T05:46:55;102488.00000000001;;;2.52;95.76
68376;BME280;55318;52.068;5.188;2023-01-26T05:48:32;102490.00000000001;;;2.64;95.24
68376;BME280;55318;52.068;5.188;2023-01-26T05:51:46;102492.0;;;2.66;94.89
68376;BME280;55318;52.068;5.188;2023-01-26T05:53:23;102493.0;;;2.46;95.61
68376;BME280;55318;52.068;5.188;2023-01-26T05:55:00;102494.0;;;2.46;96.1
68376;BME280;55318;52.068;5.188;2023-01-26T05:56:36;102493.0;;;2.54;95.97
68376;BME280;55318;52.068;5.188;2023-01-26T05:59:50;102492.0;;;2.52;95.9
68376;BME280;55318;52.068;5.188;2023-01-26T06:01:26;102494.0;;;2.48;96.21
68376;BME280;55318;52.068;5.188;2023-01-26T06:03:03;102497.0;;;2.38;96.64
68376;BME280;55318;52.068;5.188;2023-01-26T06:06:16;102496.0;;;2.34;96.79
68376;BME280;55318;52.068;5.188;2023-01-26T06:07:52;102497.0;;;2.34;97.2
68376;BME280;55318;52.068;5.188;2023-01-26T06:09:28;102498.0;;;2.29;97.74
68376;BME280;55318;52.068;5.188;2023-01-26T06:12:42;102503.0;;;2.25;97.7
68376;BME280;55318;52.068;5.188;2023-01-26T06:14:18;102499.0;;;2.25;97.98
68376;BME280;55318;52.068;5.188;2023-01-26T06:17:30;102504.0;;;2.23;98.08
68376;BME280;55318;52.068;5.188;2023-01-26T06:20:45;102501.0;;;2.27;98.03
68376;BME280;55318;52.068;5.188;2023-01-26T06:22:21;102504.0;;;2.4;97.78
68376;BME280;55318;52.068;5.188;2023-01-26T06:23:57;102508.99999999999;;;2.46;96.9
68376;BME280;55318;52.068;5.188;2023-01-26T06:27:12;102511.99999999999;;;2.29;96.86
68376;BME280;55318;52.068;5.188;2023-01-26T06:28:49;102517.0;;;2.35;97.16
68376;BME280;55318;52.068;5.188;2023-01-26T06:30:26;102515.00000000001;;;2.37;97.61
68376;BME280;55318;52.068;5.188;2023-01-26T06:33:39;102514.00000000001;;;2.32;98.0
68376;BME280;55318;52.068;5.188;2023-01-26T06:35:15;102516.00000000001;;;2.29;98.27
68376;BME280;55318;52.068;5.188;2023-01-26T06:36:51;102519.0;;;2.32;98.2
68376;BME280;55318;52.068;5.188;2023-01-26T06:38:27;102520.0;;;2.36;98.36
68376;BME280;55318;52.068;5.188;2023-01-26T06:41:43;102520.0;;;2.36;98.43
68376;BME280;55318;52.068;5.188;2023-01-26T06:43:19;102519.0;;;2.36;98.78
68376;BME280;55318;52.068;5.188;2023-01-26T06:44:57;102522.0;;;2.36;98.8
68376;BME280;55318;52.068;5.188;2023-01-26T06:48:10;102524.0;;;2.34;98.64
68376;BME280;55318;52.068;5.188;2023-01-26T06:49:46;102526.0;;;2.33;98.57
68376;BME280;55318;52.068;5.188;2023-01-26T06:51:40;102526.0;;;2.42;98.4
68376;BME280;55318;52.068;5.188;2023-01-26T06:53:33;102531.0;;;2.48;97.66
68376;BME280;55318;52.068;5.188;2023-01-26T06:55:16;102532.0;;;2.44;97.8
68376;BME280;55318;52.068;5.188;2023-01-26T06:58:30;102532.0;;;2.35;98.34
68376;BME280;55318;52.068;5.188;2023-01-26T07:00:08;102528.0;;;2.44;98.25
68376;BME280;55318;52.068;5.188;2023-01-26T07:01:47;102528.0;;;2.42;98.56
68376;BME280;55318;52.068;5.188;2023-01-26T07:05:01;102529.0;;;2.42;98.75
68376;BME280;55318;52.068;5.188;2023-01-26T07:06:37;102530.0;;;2.4;98.52
68376;BME280;55318;52.068;5.188;2023-01-26T07:08:13;102531.0;;;2.48;98.39
68376;BME280;55318;52.068;5.188;2023-01-26T07:09:49;102539.00000000001;;;2.44;98.86
68376;BME280;55318;52.068;5.188;2023-01-26T07:13:02;102541.00000000001;;;2.42;98.34
68376;BME280;55318;52.068;5.188;2023-01-26T07:14:39;102542.0;;;2.34;98.66
68376;BME280;55318;52.068;5.188;2023-01-26T07:16:16;102544.0;;;2.41;98.53
68376;BME280;55318;52.068;5.188;2023-01-26T07:19:32;102547.0;;;2.37;98.29
68376;BME280;55318;52.068;5.188;2023-01-26T07:21:10;102547.0;;;2.41;97.96
68376;BME280;55318;52.068;5.188;2023-01-26T07:22:49;102546.0;;;2.33;98.19
68376;BME280;55318;52.068;5.188;2023-01-26T07:24:26;102548.0;;;2.41;98.63
68376;BME280;55318;52.068;5.188;2023-01-26T07:27:40;102553.0;;;2.56;98.27
68376;BME280;55318;52.068;5.188;2023-01-26T07:29:16;102548.0;;;2.59;98.2
68376;BME280;55318;52.068;5.188;2023-01-26T07:30:56;102551.0;;;2.57;98.46
68376;BME280;55318;52.068;5.188;2023-01-26T07:34:09;102554.0;;;2.83;97.17
68376;BME280;55318;52.068;5.188;2023-01-26T07:35:46;102554.0;;;2.63;97.84
68376;BME280;55318;52.068;5.188;2023-01-26T07:37:26;102551.0;;;2.63;98.41
68376;BME280;55318;52.068;5.188;2023-01-26T07:39:02;102557.0;;;2.72;98.2
68376;BME280;55318;52.068;5.188;2023-01-26T07:42:16;102554.0;;;2.75;98.09
68376;BME280;55318;52.068;5.188;2023-01-26T07:43:52;102556.0;;;2.88;97.74
68376;BME280;55318;52.068;5.188;2023-01-26T07:45:28;102559.99999999999;;;3.02;97.45
68376;BME280;55318;52.068;5.188;2023-01-26T07:48:40;102561.99999999999;;;3.0;98.13
68376;BME280;55318;52.068;5.188;2023-01-26T07:50:17;102565.00000000001;;;3.05;98.03
68376;BME280;55318;52.068;5.188;2023-01-26T07:51:54;102563.00000000001;;;3.16;98.07
68376;BME280;55318;52.068;5.188;2023-01-26T07:55:07;102561.99999999999;;;3.27;98.24
68376;BME280;55318;52.068;5.188;2023-01-26T07:56:43;102566.00000000001;;;3.42;98.03
68376;BME280;55318;52.068;5.188;2023-01-26T07:58:20;102561.99999999999;;;3.45;98.08
68376;BME280;55318;52.068;5.188;2023-01-26T07:59:56;102566.00000000001;;;3.56;98.39
68376;BME280;55318;52.068;5.188;2023-01-26T08:03:09;102566.00000000001;;;3.61;98.33
68376;BME280;55318;52.068;5.188;2023-01-26T08:04:45;102567.0;;;3.71;97.57
68376;BME280;55318;52.068;5.188;2023-01-26T08:06:21;102569.0;;;3.69;98.3
68376;BME280;55318;52.068;5.188;2023-01-26T08:09:36;102567.0;;;3.75;98.42
68376;BME280;55318;52.068;5.188;2023-01-26T08:11:13;102565.00000000001;;;3.96;97.16
68376;BME280;55318;52.068;5.188;2023-01-26T08:12:49;102567.0;;;4.0;97.38
68376;BME280;55318;52.068;5.188;2023-01-26T08:16:03;102572.0;;;3.96;97.99
68376;BME280;55318;52.068;5.188;2023-01-26T08:17:40;102568.0;;;3.97;97.82
68376;BME280;55318;52.068;5.188;2023-01-26T08:19:16;102564.00000000001;;;3.93;98.6
68376;BME280;55318;52.068;5.188;2023-01-26T08:20:53;102574.0;;;4.07;98.75
68376;BME280;55318;52.068;5.188;2023-01-26T08:24:07;102567.0;;;4.16;98.39
68376;BME280;55318;52.068;5.188;2023-01-26T08:25:46;102567.0;;;4.2;98.39
68376;BME280;55318;52.068;5.188;2023-01-26T08:27:23;102567.0;;;4.36;98.06
68376;BME280;55318;52.068;5.188;2023-01-26T08:30:36;102569.0;;;4.41;97.89
68376;BME280;55318;52.068;5.188;2023-01-26T08:32:13;102571.0;;;4.54;97.7
68376;BME280;55318;52.068;5.188;2023-01-26T08:33:51;102569.0;;;4.53;97.5
68376;BME280;55318;52.068;5.188;2023-01-26T08:37:05;102575.0;;;4.64;97.36
68376;BME280;55318;52.068;5.188;2023-01-26T08:38:41;102571.0;;;4.59;98.1
68376;BME280;55318;52.068;5.188;2023-01-26T08:40:19;102574.0;;;4.67;98.0
68376;BME280;55318;52.068;5.188;2023-01-26T08:41:55;102575.0;;;4.84;97.55
68376;BME280;55318;52.068;5.188;2023-01-26T08:45:09;102577.0;;;4.8;97.13
68376;BME280;55318;52.068;5.188;2023-01-26T08:46:46;102578.0;;;4.99;97.34
68376;BME280;55318;52.068;5.188;2023-01-26T08:48:22;102579.0;;;5.07;97.13
68376;BME280;55318;52.068;5.188;2023-01-26T08:51:35;102582.0;;;5.14;96.63
68376;BME280;55318;52.068;5.188;2023-01-26T08:53:11;102581.0;;;5.25;96.15
68376;BME280;55318;52.068;5.188;2023-01-26T08:54:48;102583.0;;;5.03;97.36
68376;BME280;55318;52.068;5.188;2023-01-26T08:58:01;102586.99999999999;;;5.11;97.22
68376;BME280;55318;52.068;5.188;2023-01-26T08:59:38;102582.0;;;4.99;98.01
68376;BME280;55318;52.068;5.188;2023-01-26T09:01:15;102589.00000000001;;;5.17;98.26
68376;BME280;55318;52.068;5.188;2023-01-26T09:02:57;102592.0;;;5.39;97.46
68376;BME280;55318;52.068;5.188;2023-01-26T09:06:12;102594.0;;;5.46;97.92
68376;BME280;55318;52.068;5.188;2023-01-26T09:07:48;102592.0;;;5.42;98.67
68376;BME280;55318;52.068;5.188;2023-01-26T09:09:25;102601.0;;;5.65;97.91
68376;BME280;55318;52.068;5.188;2023-01-26T09:12:40;102600.0;;;5.53;98.03
68376;BME280;55318;52.068;5.188;2023-01-26T09:14:16;102599.0;;;5.73;98.12
68376;BME280;55318;52.068;5.188;2023-01-26T09:15:53;102595.0;;;5.71;98.28
68376;BME280;55318;52.068;5.188;2023-01-26T09:17:29;102604.0;;;5.66;98.68
68376;BME280;55318;52.068;5.188;2023-01-26T09:20:42;102601.0;;;5.94;98.11
68376;BME280;55318;52.068;5.188;2023-01-26T09:22:19;102607.0;;;5.97;97.66
68376;BME280;55318;52.068;5.188;2023-01-26T09:23:55;102599.0;;;5.75;98.44
68376;BME280;55318;52.068;5.188;2023-01-26T09:27:11;102599.0;;;6.01;97.66
68376;BME280;55318;52.068;5.188;2023-01-26T09:28:49;102603.0;;;6.13;97.6
68376;BME280;55318;52.068;5.188;2023-01-26T09:30:26;102604.0;;;6.11;97.54
68376;BME280;55318;52.068;5.188;2023-01-26T09:32:02;102608.99999999999;;;6.2;97.58
68376;BME280;55318;52.068;5.188;2023-01-26T09:35:14;102611.99999999999;;;6.16;98.16
68376;BME280;55318;52.068;5.188;2023-01-26T09:36:51;102613.00000000001;;;6.35;97.73
68376;BME280;55318;52.068;5.188;2023-01-26T09:38:27;102609.99999999999;;;6.43;97.63
68376;BME280;55318;52.068;5.188;2023-01-26T09:41:51;102608.99999999999;;;6.49;97.64
68376;BME280;55318;52.068;5.188;2023-01-26T09:43:42;102619.0;;;6.6;97.58
68376;BME280;55318;52.068;5.188;2023-01-26T09:45:26;102617.0;;;6.51;98.16
68376;BME280;55318;52.068;5.188;2023-01-26T09:47:13;102616.00000000001;;;6.53;98.08
68376;BME280;55318;52.068;5.188;2023-01-26T09:49:01;102617.0;;;6.5;98.99
68376;BME280;55318;52.068;5.188;2023-01-26T09:52:29;102614.00000000001;;;6.81;98.4
68376;BME280;55318;52.068;5.188;2023-01-26T09:54:17;102615.00000000001;;;6.89;98.37
68376;BME280;55318;52.068;5.188;2023-01-26T09:56:11;102618.0;;;6.88;99.03
68376;BME280;55318;52.068;5.188;2023-01-26T09:57:54;102616.00000000001;;;7.01;98.89
68376;BME280;55318;52.068;5.188;2023-01-26T09:59:39;102614.00000000001;;;6.99;98.66
68376;BME280;55318;52.068;5.188;2023-01-26T10:01:23;102609.99999999999;;;7.2;98.17
68376;BME280;55318;52.068;5.188;2023-01-26T10:04:57;102615.00000000001;;;7.35;97.75
68376;BME280;55318;52.068;5.188;2023-01-26T10:06:37;102616.00000000001;;;7.43;97.18
68376;BME280;55318;52.068;5.188;2023-01-26T10:08:16;102617.0;;;7.39;97.07
68376;BME280;55318;52.068;5.188;2023-01-26T10:09:55;102616.00000000001;;;7.4;97.73
68376;BME280;55318;52.068;5.188;2023-01-26T10:13:15;102619.0;;;7.6;96.94
68376;BME280;55318;52.068;5.188;2023-01-26T10:14:58;102617.0;;;7.72;96.58
68376;BME280;55318;52.068;5.188;2023-01-26T10:16:36;102619.0;;;7.66;96.83
68376;BME280;55318;52.068;5.188;2023-01-26T10:18:17;102619.0;;;7.72;96.74
68376;BME280;55318;52.068;5.188;2023-01-26T10:21:42;102618.0;;;7.78;96.78
68376;BME280;55318;52.068;5.188;2023-01-26T10:23:26;102617.0;;;7.78;96.88
68376;BME280;55318;52.068;5.188;2023-01-26T10:25:12;102614.00000000001;;;7.9;96.08
68376;BME280;55318;52.068;5.188;2023-01-26T10:26:52;102619.0;;;7.97;95.72
68376;BME280;55318;52.068;5.188;2023-01-26T10:28:34;102616.00000000001;;;7.82;96.12
68376;BME280;55318;52.068;5.188;2023-01-26T10:31:49;102617.0;;;7.71;96.61
68376;BME280;55318;52.068;5.188;2023-01-26T10:33:29;102611.99999999999;;;8.0;95.67
68376;BME280;55318;52.068;5.188;2023-01-26T10:35:14;102613.00000000001;;;7.8;95.06
68376;BME280;55318;52.068;5.188;2023-01-26T10:36:55;102607.0;;;7.94;94.49
68376;BME280;55318;52.068;5.188;2023-01-26T10:40:28;102614.00000000001;;;7.83;94.59
68376;BME280;55318;52.068;5.188;2023-01-26T10:42:04;102617.0;;;7.98;93.61
68376;BME280;55318;52.068;5.188;2023-01-26T10:43:41;102620.0;;;8.11;93.15
68376;BME280;55318;52.068;5.188;2023-01-26T10:45:28;102618.0;;;8.18;92.66
68376;BME280;55318;52.068;5.188;2023-01-26T10:48:55;102617.0;;;8.06;93.17
68376;BME280;55318;52.068;5.188;2023-01-26T10:50:33;102622.0;;;7.85;95.48
68376;BME280;55318;52.068;5.188;2023-01-26T10:52:14;102624.0;;;8.1;93.97
68376;BME280;55318;52.068;5.188;2023-01-26T10:54:27;102627.0;;;8.28;93.41
68376;BME280;55318;52.068;5.188;2023-01-26T10:56:05;102628.0;;;8.09;93.25
68376;BME280;55318;52.068;5.188;2023-01-26T10:57:46;102630.0;;;8.14;93.07
68376;BME280;55318;52.068;5.188;2023-01-26T11:01:11;102627.0;;;8.27;93.31
68376;BME280;55318;52.068;5.188;2023-01-26T11:02:51;102629.0;;;8.39;93.43
68376;BME280;55318;52.068;5.188;2023-01-26T11:04:28;102632.0;;;8.44;93.12
68376;BME280;55318;52.068;5.188;2023-01-26T11:07:50;102631.0;;;8.44;92.8
68376;BME280;55318;52.068;5.188;2023-01-26T11:09:28;102627.0;;;8.43;92.4
68376;BME280;55318;52.068;5.188;2023-01-26T11:11:23;102618.0;;;8.31;92.84
68376;BME280;55318;52.068;5.188;2023-01-26T11:13:12;102628.0;;;8.15;93.58
68376;BME280;55318;52.068;5.188;2023-01-26T11:14:59;102631.0;;;8.16;93.09
68376;BME280;55318;52.068;5.188;2023-01-26T11:16:43;102629.0;;;8.49;92.37
68376;BME280;55318;52.068;5.188;2023-01-26T11:20:32;102620.0;;;8.41;92.49
68376;BME280;55318;52.068;5.188;2023-01-26T11:22:46;102625.0;;;8.73;91.69
68376;BME280;55318;52.068;5.188;2023-01-26T11:24:33;102625.0;;;8.72;90.44
68376;BME280;55318;52.068;5.188;2023-01-26T11:26:28;102624.0;;;8.77;89.96
68376;BME280;55318;52.068;5.188;2023-01-26T11:30:08;102611.99999999999;;;8.74;90.26
68376;BME280;55318;52.068;5.188;2023-01-26T11:32:50;102617.0;;;8.99;89.66
68376;BME280;55318;52.068;5.188;2023-01-26T11:34:36;102621.0;;;9.1;89.22
68376;BME280;55318;52.068;5.188;2023-01-26T11:36:29;102618.0;;;8.9;88.02